Time;durP1;ratioP1;P1;durP2;ratioP2;P2;SDS_P1;SDS_P2;PMS_P1;PMS_P2;Temp;Humidity;BMP_temperature;BMP_pressure;BME280_temperature;BME280_humidity;BME280_pressure;Samples;Min_cycle;Max_cycle;Signal;HPM_P1;HPM_P2
2023/01/29 00:01:29;;;;;;;;;;;;;;;-3.27;85.58;100406.86;450413;1251;139890;-62
2023/01/29 00:11:33;;;;;;;;;;;;;;;-3.29;85.85;100405.81;450391;1250;130425;-63
2023/01/29 00:21:37;;;;;;;;;;;;;;;-3.27;85.95;100411.14;446445;1251;131528;-63
2023/01/29 00:31:44;;;;;;;;;;;;;;;-3.24;86.02;100391.63;450442;1252;130492;-62
2023/01/29 01:12:55;;;;;;;;;;;;;;;-3.26;86.16;100351.38;449892;1251;128967;-63
2023/01/29 01:23:00;;;;;;;;;;;;;;;-3.27;86.22;100337.16;450460;1251;129498;-63
2023/01/29 01:33:04;;;;;;;;;;;;;;;-3.26;86.24;100316.61;450473;1251;129441;-63
2023/01/29 01:43:10;;;;;;;;;;;;;;;-3.30;86.33;100318.65;449798;1251;131891;-62
2023/01/29 01:53:17;;;;;;;;;;;;;;;-3.31;86.54;100318.13;450426;1251;129274;-63
2023/01/29 02:13:45;;;;;;;;;;;;;;;-3.27;86.77;100317.81;443835;1254;203577;-62
2023/01/29 02:24:11;;;;;;;;;;;;;;;-3.27;86.97;100327.06;433924;1251;132585;-62
2023/01/29 02:34:19;;;;;;;;;;;;;;;-3.27;87.11;100325.86;449684;1251;133115;-64
2023/01/29 02:44:28;;;;;;;;;;;;;;;-3.27;87.30;100328.09;442409;1252;129412;-61
2023/01/29 02:54:39;;;;;;;;;;;;;;;-3.29;87.28;100320.20;434564;1252;130935;-62
2023/01/29 03:04:47;;;;;;;;;;;;;;;-3.31;87.47;100301.34;433422;1252;129523;-61
2023/01/29 03:35:38;;;;;;;;;;;;;;;-3.35;87.54;100287.80;450578;1251;130331;-62
2023/01/29 03:45:50;;;;;;;;;;;;;;;-3.35;87.73;100289.52;449849;1251;130378;-62
2023/01/29 03:56:00;;;;;;;;;;;;;;;-3.33;87.72;100271.21;450685;1252;129318;-62
2023/01/29 04:06:09;;;;;;;;;;;;;;;-3.30;87.73;100268.64;447148;1251;129721;-61
2023/01/29 04:16:16;;;;;;;;;;;;;;;-3.31;87.59;100264.54;450011;1251;129688;-61
2023/01/29 04:26:24;;;;;;;;;;;;;;;-3.29;87.60;100254.09;450665;1251;129379;-60
2023/01/29 04:36:34;;;;;;;;;;;;;;;-3.26;87.71;100250.86;449960;1252;128501;-62
2023/01/29 04:46:45;;;;;;;;;;;;;;;-3.28;87.69;100241.27;450639;1251;130865;-61
2023/01/29 04:56:53;;;;;;;;;;;;;;;-3.31;87.65;100234.58;448219;1251;129203;-61
2023/01/29 05:06:57;;;;;;;;;;;;;;;-3.31;87.71;100225.33;448718;1252;131053;-61
2023/01/29 05:17:03;;;;;;;;;;;;;;;-3.31;87.89;100221.21;450644;1251;129852;-62
2023/01/29 05:37:37;;;;;;;;;;;;;;;-3.29;88.10;100221.23;450209;1251;200254;-62
2023/01/29 05:47:41;;;;;;;;;;;;;;;-3.24;88.28;100212.50;450724;1251;129613;-61
2023/01/29 05:57:45;;;;;;;;;;;;;;;-3.23;88.35;100205.66;449882;1253;130274;-61
2023/01/29 06:07:50;;;;;;;;;;;;;;;-3.21;88.40;100200.52;448826;1251;133449;-61
2023/01/29 06:17:54;;;;;;;;;;;;;;;-3.20;88.41;100198.81;448207;1251;129516;-62
2023/01/29 06:27:59;;;;;;;;;;;;;;;-3.23;88.60;100189.05;449894;1251;130801;-62
2023/01/29 06:38:03;;;;;;;;;;;;;;;-3.24;88.60;100201.71;450718;1251;130261;-62
2023/01/29 06:48:07;;;;;;;;;;;;;;;-3.22;88.82;100207.20;450759;1252;128521;-62
2023/01/29 06:58:12;;;;;;;;;;;;;;;-3.25;88.50;100212.15;449936;1251;169732;-62
2023/01/29 07:08:16;;;;;;;;;;;;;;;-3.12;88.85;100217.84;446162;1252;129165;-60
2023/01/29 07:18:20;;;;;;;;;;;;;;;-2.94;88.66;100219.42;450584;1251;130529;-61
2023/01/29 07:28:25;;;;;;;;;;;;;;;-2.81;88.50;100233.15;450291;1251;197471;-62
2023/01/29 07:38:29;;;;;;;;;;;;;;;-2.62;88.51;100246.88;450639;1251;174211;-60
2023/01/29 07:48:34;;;;;;;;;;;;;;;-2.55;88.12;100230.77;449993;1251;130398;-62
2023/01/29 07:58:38;;;;;;;;;;;;;;;-2.40;87.84;100215.84;450617;1251;128542;-61
2023/01/29 08:08:42;;;;;;;;;;;;;;;-2.11;87.98;100204.48;447154;1251;129979;-61
2023/01/29 08:18:47;;;;;;;;;;;;;;;-1.74;87.69;100200.77;449939;1254;182103;-61
2023/01/29 08:28:51;;;;;;;;;;;;;;;-1.49;86.60;100194.14;450605;1251;130657;-62
2023/01/29 08:38:56;;;;;;;;;;;;;;;-0.81;85.97;100177.92;450604;1251;129505;-60
2023/01/29 08:49:00;;;;;;;;;;;;;;;-0.65;84.69;100182.95;449862;1251;131037;-61
2023/01/29 08:59:04;;;;;;;;;;;;;;;-0.07;84.70;100174.30;450519;1251;129536;-61
2023/01/29 09:09:08;;;;;;;;;;;;;;;0.16;83.60;100178.38;442567;1251;189181;-59
2023/01/29 09:19:12;;;;;;;;;;;;;;;0.04;83.11;100163.52;449497;1251;130026;-60
2023/01/29 09:29:17;;;;;;;;;;;;;;;-0.16;83.19;100160.12;450485;1251;131613;-59
2023/01/29 09:39:21;;;;;;;;;;;;;;;-0.45;83.48;100145.97;439008;1254;129314;-59
2023/01/29 09:49:28;;;;;;;;;;;;;;;-0.56;84.28;100130.07;446228;1251;199997;-62
2023/01/29 09:59:33;;;;;;;;;;;;;;;-0.63;84.84;100118.44;437870;1251;129247;-61
2023/01/29 10:09:45;;;;;;;;;;;;;;;-0.56;84.99;100110.99;436965;1251;129158;-61
2023/01/29 10:19:56;;;;;;;;;;;;;;;-0.53;84.64;100096.50;450264;1251;128892;-60
2023/01/29 10:30:03;;;;;;;;;;;;;;;-0.76;85.59;100096.20;446930;1251;129487;-60
2023/01/29 10:40:18;;;;;;;;;;;;;;;-1.10;86.50;100090.83;442875;1251;128500;-61
2023/01/29 10:50:31;;;;;;;;;;;;;;;-1.28;87.72;100086.16;438140;1251;128832;-60
2023/01/29 11:00:37;;;;;;;;;;;;;;;-1.36;88.69;100069.55;441764;1251;129014;-61
2023/01/29 11:10:47;;;;;;;;;;;;;;;-1.34;89.35;100062.33;438539;1251;190621;-61
2023/01/29 11:20:59;;;;;;;;;;;;;;;-1.43;90.04;100054.66;446400;1251;131107;-60
2023/01/29 11:31:04;;;;;;;;;;;;;;;-1.52;90.47;100038.92;448591;1251;129337;-61
2023/01/29 11:41:17;;;;;;;;;;;;;;;-1.38;91.26;100019.42;433544;1254;129892;-60
2023/01/29 11:51:23;;;;;;;;;;;;;;;-1.42;91.73;100004.34;450406;1251;130245;-60
2023/01/29 12:01:34;;;;;;;;;;;;;;;-1.44;92.66;99990.61;449919;1251;183158;-61
2023/01/29 12:11:38;;;;;;;;;;;;;;;-1.25;93.08;99981.34;450498;1250;128847;-61
2023/01/29 12:21:47;;;;;;;;;;;;;;;-1.33;93.03;99956.50;449712;1251;130398;-60
2023/01/29 12:31:56;;;;;;;;;;;;;;;-1.53;93.44;99940.55;450360;1251;132795;-59
2023/01/29 12:42:04;;;;;;;;;;;;;;;-1.51;93.98;99924.91;440516;1251;133303;-61
2023/01/29 12:52:12;;;;;;;;;;;;;;;-1.54;94.45;99919.09;443907;1251;128007;-61
2023/01/29 13:02:23;;;;;;;;;;;;;;;-1.73;94.40;99910.15;450286;1251;129706;-61
2023/01/29 13:12:27;;;;;;;;;;;;;;;-1.80;95.41;99900.60;449786;1250;151762;-60
2023/01/29 13:22:35;;;;;;;;;;;;;;;-1.82;95.51;99892.71;450509;1251;129716;-62
2023/01/29 13:32:39;;;;;;;;;;;;;;;-1.81;95.66;99889.10;450488;1251;128253;-60
2023/01/29 13:42:46;;;;;;;;;;;;;;;-1.80;96.01;99885.85;449825;1251;129970;-61
2023/01/29 13:52:54;;;;;;;;;;;;;;;-1.79;96.45;99876.55;443053;1251;128713;-61
2023/01/29 14:03:12;;;;;;;;;;;;;;;-1.77;96.71;99880.33;448556;1251;128402;-61
2023/01/29 14:13:27;;;;;;;;;;;;;;;-1.76;96.85;99886.49;449850;1251;128357;-61
2023/01/29 14:23:40;;;;;;;;;;;;;;;-1.82;96.98;99890.84;450597;1251;128998;-61
2023/01/29 14:33:45;;;;;;;;;;;;;;;-1.79;97.24;99884.46;449832;1251;128803;-60
2023/01/29 14:43:49;;;;;;;;;;;;;;;-1.76;97.61;99878.42;450571;1251;128997;-61
2023/01/29 14:53:58;;;;;;;;;;;;;;;-1.71;97.83;99856.59;450490;1251;130848;-61
2023/01/29 15:04:04;;;;;;;;;;;;;;;-1.79;97.77;99854.94;449871;1250;128269;-59
2023/01/29 15:14:13;;;;;;;;;;;;;;;-1.84;97.99;99860.65;450501;1251;128807;-61
2023/01/29 15:24:18;;;;;;;;;;;;;;;-1.89;98.36;99862.39;450302;1252;129982;-61
2023/01/29 15:34:22;;;;;;;;;;;;;;;-1.94;98.62;99856.09;449733;1251;129339;-61
2023/01/29 15:44:27;;;;;;;;;;;;;;;-1.96;98.55;99855.41;449440;1251;129013;-61
2023/01/29 15:54:32;;;;;;;;;;;;;;;-2.02;99.04;99858.90;443292;1251;130388;-59
2023/01/29 16:04:37;;;;;;;;;;;;;;;-2.01;99.40;99838.14;450471;1251;128664;-62
2023/01/29 16:14:41;;;;;;;;;;;;;;;-2.05;99.50;99829.42;449898;1250;128428;-61
2023/01/29 16:24:46;;;;;;;;;;;;;;;-2.06;99.83;99840.05;437530;1250;132880;-61
2023/01/29 16:34:56;;;;;;;;;;;;;;;-2.05;99.82;99837.48;446416;1251;129032;-61
2023/01/29 16:45:01;;;;;;;;;;;;;;;-2.06;99.79;99825.98;446851;1251;130057;-60
2023/01/29 16:55:22;;;;;;;;;;;;;;;-2.05;99.99;99816.04;449582;1251;129597;-59
2023/01/29 17:05:28;;;;;;;;;;;;;;;-2.04;99.97;99801.77;450433;1251;187045;-60
2023/01/29 17:15:43;;;;;;;;;;;;;;;-2.04;99.93;99802.64;449568;1251;129451;-61
2023/01/29 17:25:48;;;;;;;;;;;;;;;-2.01;100.00;99798.16;449349;1251;128665;-61
2023/01/29 17:35:52;;;;;;;;;;;;;;;-1.94;100.00;99781.10;442970;1251;128910;-61
2023/01/29 17:45:57;;;;;;;;;;;;;;;-1.93;100.00;99774.57;433042;1255;187895;-64
2023/01/29 17:56:01;;;;;;;;;;;;;;;-1.91;100.00;99748.98;446611;1250;130445;-61
2023/01/29 18:06:08;;;;;;;;;;;;;;;-1.87;100.00;99730.08;450496;1251;129367;-61
2023/01/29 18:16:12;;;;;;;;;;;;;;;-1.82;100.00;99712.85;449659;1252;129372;-61
2023/01/29 18:26:17;;;;;;;;;;;;;;;-1.80;100.00;99706.48;442575;1251;132225;-60
2023/01/29 18:36:21;;;;;;;;;;;;;;;-1.75;100.00;99695.45;432887;1253;130221;-60
2023/01/29 18:46:26;;;;;;;;;;;;;;;-1.76;100.00;99680.86;439687;1252;184638;-60
2023/01/29 18:56:30;;;;;;;;;;;;;;;-1.77;100.00;99669.55;443350;1251;129292;-61
2023/01/29 19:06:35;;;;;;;;;;;;;;;-1.74;100.00;99662.47;449732;1251;129538;-60
2023/01/29 19:16:41;;;;;;;;;;;;;;;-1.69;100.00;99660.00;450447;1251;130218;-60
2023/01/29 19:26:45;;;;;;;;;;;;;;;-1.61;100.00;99650.80;450429;1251;130903;-60
2023/01/29 19:36:50;;;;;;;;;;;;;;;-1.54;100.00;99646.09;449769;1252;128913;-61
2023/01/29 19:46:54;;;;;;;;;;;;;;;-1.50;100.00;99629.73;449516;1252;131782;-60
2023/01/29 19:56:59;;;;;;;;;;;;;;;-1.49;100.00;99619.07;450419;1252;129254;-60
2023/01/29 20:07:03;;;;;;;;;;;;;;;-1.43;100.00;99608.49;448707;1251;129577;-60
2023/01/29 20:17:07;;;;;;;;;;;;;;;-1.38;100.00;99599.85;450348;1251;132028;-61
2023/01/29 20:27:12;;;;;;;;;;;;;;;-1.32;100.00;99593.23;444383;1251;132470;-59
2023/01/29 20:37:16;;;;;;;;;;;;;;;-1.30;100.00;99578.08;449667;1252;130259;-60
2023/01/29 20:47:20;;;;;;;;;;;;;;;-1.27;100.00;99564.11;450499;1251;128709;-61
2023/01/29 20:57:25;;;;;;;;;;;;;;;-1.22;100.00;99544.63;449682;1252;129906;-61
2023/01/29 21:07:29;;;;;;;;;;;;;;;-1.21;100.00;99545.14;450311;1252;132283;-62
2023/01/29 21:17:33;;;;;;;;;;;;;;;-1.20;100.00;99536.88;450579;1253;130137;-59
2023/01/29 21:27:37;;;;;;;;;;;;;;;-1.19;100.00;99525.88;448721;1252;131185;-62
2023/01/29 21:37:42;;;;;;;;;;;;;;;-1.18;100.00;99512.10;450512;1252;129321;-60
2023/01/29 21:47:46;;;;;;;;;;;;;;;-1.14;100.00;99493.65;450459;1251;130700;-60
2023/01/29 21:57:51;;;;;;;;;;;;;;;-1.11;100.00;99484.83;441426;1252;129400;-59
2023/01/29 22:07:55;;;;;;;;;;;;;;;-1.11;100.00;99473.84;450330;1251;129134;-61
2023/01/29 22:18:00;;;;;;;;;;;;;;;-1.09;100.00;99466.60;439927;1255;129389;-61
2023/01/29 22:28:05;;;;;;;;;;;;;;;-1.10;100.00;99455.11;436636;1252;130292;-60
2023/01/29 22:38:10;;;;;;;;;;;;;;;-1.14;100.00;99430.27;435558;1250;128732;-61
2023/01/29 22:48:15;;;;;;;;;;;;;;;-1.18;100.00;99401.63;440646;1251;128278;-60
2023/01/29 22:58:20;;;;;;;;;;;;;;;-1.21;100.00;99376.98;434127;1255;129131;-60
2023/01/29 23:08:24;;;;;;;;;;;;;;;-1.24;100.00;99349.37;450638;1253;129994;-61
2023/01/29 23:18:28;;;;;;;;;;;;;;;-1.26;100.00;99325.86;449908;1255;129723;-60
2023/01/29 23:28:33;;;;;;;;;;;;;;;-1.29;100.00;99314.77;448037;1251;129426;-60
2023/01/29 23:38:37;;;;;;;;;;;;;;;-1.36;100.00;99303.92;440609;1251;129136;-59
2023/01/29 23:48:41;;;;;;;;;;;;;;;-1.47;100.00;99287.81;436170;1255;128560;-59
2023/01/29 23:58:46;;;;;;;;;;;;;;;-1.61;100.00;99266.12;438519;1251;128464;-59
